createdAt,value
2022-11-29T00:00:46.026Z,17.90
2022-11-29T00:02:17.886Z,16.10
2022-11-29T00:03:50.566Z,13.73
2022-11-29T00:05:22.401Z,17.30
2022-11-29T00:06:54.253Z,23.03
2022-11-29T00:08:26.110Z,20.87
2022-11-29T00:09:57.755Z,18.63
2022-11-29T00:11:51.717Z,14.83
2022-11-29T00:13:23.370Z,18.43
2022-11-29T00:14:55.023Z,15.67
2022-11-29T00:16:26.757Z,24.43
2022-11-29T00:17:58.421Z,23.53
2022-11-29T00:19:31.965Z,17.20
2022-11-29T00:21:07.651Z,18.30
2022-11-29T00:22:39.468Z,16.90
2022-11-29T00:24:11.344Z,16.50
2022-11-29T00:25:42.984Z,20.37
2022-11-29T00:27:14.707Z,18.40
2022-11-29T00:28:46.322Z,18.90
2022-11-29T00:30:19.015Z,19.40
2022-11-29T00:31:50.662Z,17.33
2022-11-29T00:33:22.278Z,19.00
2022-11-29T00:34:53.867Z,17.10
2022-11-29T00:36:26.216Z,15.03
2022-11-29T00:37:57.839Z,33.03
2022-11-29T00:39:29.491Z,19.27
2022-11-29T00:41:01.127Z,22.43
2022-11-29T00:42:32.774Z,15.77
2022-11-29T00:44:04.479Z,21.73
2022-11-29T00:45:36.144Z,23.10
2022-11-29T00:47:07.878Z,15.90
2022-11-29T00:48:39.651Z,20.03
2022-11-29T00:50:11.566Z,15.37
2022-11-29T00:51:43.261Z,21.17
2022-11-29T00:53:14.924Z,21.87
2022-11-29T00:54:46.858Z,17.90
2022-11-29T00:56:18.712Z,19.10
2022-11-29T00:57:50.317Z,22.27
2022-11-29T00:59:21.998Z,16.43
2022-11-29T01:00:54.367Z,19.80
2022-11-29T01:02:26.095Z,18.47
2022-11-29T01:03:57.750Z,17.47
2022-11-29T01:05:31.398Z,21.97
2022-11-29T01:07:03.046Z,16.93
2022-11-29T01:08:35.366Z,27.23
2022-11-29T01:10:07.890Z,20.57
2022-11-29T01:11:39.518Z,24.13
2022-11-29T01:13:11.813Z,18.37
2022-11-29T01:14:43.745Z,19.57
2022-11-29T01:16:17.059Z,19.77
2022-11-29T01:17:50.253Z,23.53
2022-11-29T01:19:21.854Z,21.20
2022-11-29T01:21:20.865Z,23.53
2022-11-29T01:22:52.702Z,26.23
2022-11-29T01:24:24.467Z,17.50
2022-11-29T01:26:02.712Z,24.57
2022-11-29T01:27:34.962Z,19.60
2022-11-29T01:29:06.598Z,29.70
2022-11-29T01:30:38.246Z,25.00
2022-11-29T01:32:12.210Z,27.30
2022-11-29T01:33:44.186Z,19.80
2022-11-29T01:35:15.822Z,24.30
2022-11-29T01:36:47.438Z,32.20
2022-11-29T01:38:19.911Z,26.90
2022-11-29T01:39:51.548Z,20.43
2022-11-29T01:41:26.486Z,21.63
2022-11-29T01:42:58.099Z,22.43
2022-11-29T01:44:29.671Z,23.90
2022-11-29T01:46:01.315Z,19.20
2022-11-29T01:47:33.830Z,27.30
2022-11-29T01:49:08.695Z,26.70
2022-11-29T01:50:41.263Z,26.90
2022-11-29T01:52:32.682Z,27.33
2022-11-29T01:54:05.486Z,28.27
2022-11-29T01:55:40.359Z,23.97
2022-11-29T01:57:14.274Z,29.47
2022-11-29T01:58:45.990Z,27.00
2022-11-29T02:00:19.253Z,27.10
2022-11-29T02:01:52.214Z,23.37
2022-11-29T02:03:23.920Z,20.73
2022-11-29T02:04:57.399Z,26.77
2022-11-29T02:06:30.387Z,20.33
2022-11-29T02:08:02.856Z,21.37
2022-11-29T02:09:34.502Z,24.87
2022-11-29T02:11:12.279Z,18.97
2022-11-29T02:13:09.009Z,20.20
2022-11-29T02:14:55.739Z,29.27
2022-11-29T02:16:30.181Z,20.43
2022-11-29T02:18:39.734Z,23.37
2022-11-29T02:20:29.486Z,24.33
2022-11-29T02:22:10.706Z,23.17
2022-11-29T02:24:22.357Z,24.50
2022-11-29T02:26:31.698Z,21.40
2022-11-29T02:28:28.362Z,21.00
2022-11-29T02:30:29.504Z,24.57
2022-11-29T02:32:40.685Z,20.07
2022-11-29T02:34:31.136Z,24.63
2022-11-29T02:36:11.709Z,23.20
2022-11-29T02:37:43.287Z,22.93
2022-11-29T02:39:14.874Z,19.47
2022-11-29T02:40:58.429Z,27.73
2022-11-29T02:42:56.564Z,23.47
2022-11-29T02:44:50.065Z,28.53
2022-11-29T02:46:46.259Z,20.67
2022-11-29T02:48:29.587Z,21.83
2022-11-29T02:50:07.257Z,27.80
2022-11-29T02:51:55.015Z,26.57
2022-11-29T02:53:55.800Z,30.50
2022-11-29T02:55:43.730Z,23.30
2022-11-29T02:57:29.337Z,24.77
2022-11-29T02:59:33.853Z,25.07
2022-11-29T03:01:18.283Z,22.23
2022-11-29T03:02:59.980Z,24.30
2022-11-29T03:04:34.085Z,21.60
2022-11-29T03:06:25.843Z,30.83
2022-11-29T03:08:23.013Z,23.67
2022-11-29T03:10:14.220Z,26.07
2022-11-29T03:11:49.500Z,26.70
2022-11-29T03:13:59.801Z,25.70
2022-11-29T03:15:41.464Z,27.53
2022-11-29T03:17:25.757Z,25.83
2022-11-29T03:19:36.894Z,29.63
2022-11-29T03:21:13.611Z,31.03
2022-11-29T03:22:57.789Z,25.80
2022-11-29T03:24:42.342Z,32.77
2022-11-29T03:26:18.997Z,29.30
2022-11-29T03:28:02.776Z,29.20
2022-11-29T03:29:46.624Z,24.97
2022-11-29T03:31:51.318Z,29.63
2022-11-29T03:33:38.622Z,28.80
2022-11-29T03:35:16.702Z,28.37
2022-11-29T03:37:14.035Z,25.73
2022-11-29T03:38:47.492Z,33.17
2022-11-29T03:40:24.220Z,28.87
2022-11-29T03:42:03.224Z,29.40
2022-11-29T03:43:34.814Z,29.17
2022-11-29T03:45:17.046Z,28.50
2022-11-29T03:47:02.806Z,32.40
2022-11-29T03:48:45.815Z,25.83
2022-11-29T03:50:24.904Z,29.03
2022-11-29T03:52:13.212Z,27.90
2022-11-29T03:53:54.173Z,25.20
2022-11-29T03:56:21.330Z,30.03
2022-11-29T03:58:30.540Z,31.07
2022-11-29T04:00:08.639Z,38.97
2022-11-29T04:01:59.745Z,26.70
2022-11-29T04:03:52.621Z,26.60
2022-11-29T04:05:48.188Z,28.83
2022-11-29T04:07:39.480Z,23.60
2022-11-29T04:09:48.928Z,32.67
2022-11-29T04:11:32.161Z,29.30
2022-11-29T04:13:15.473Z,24.40
2022-11-29T04:15:12.830Z,35.90
2022-11-29T04:17:18.177Z,27.97
2022-11-29T04:19:18.078Z,33.13
2022-11-29T04:21:36.049Z,35.17
2022-11-29T04:23:16.011Z,30.40
2022-11-29T04:25:25.956Z,31.40
2022-11-29T04:27:37.457Z,33.20
2022-11-29T04:29:19.878Z,28.87
2022-11-29T04:30:57.327Z,32.80
2022-11-29T04:32:51.530Z,37.77
2022-11-29T04:34:34.714Z,35.87
2022-11-29T04:36:37.379Z,31.03
2022-11-29T04:38:30.638Z,40.03
2022-11-29T04:40:17.809Z,37.13
2022-11-29T04:41:52.778Z,38.73
2022-11-29T04:43:51.374Z,31.83
2022-11-29T04:45:41.118Z,35.90
2022-11-29T04:47:38.674Z,29.90
2022-11-29T04:49:41.078Z,38.50
2022-11-29T04:51:39.059Z,34.33
2022-11-29T04:53:41.766Z,41.10
2022-11-29T04:55:38.685Z,30.90
2022-11-29T04:57:25.336Z,34.33
2022-11-29T04:59:20.768Z,36.80
2022-11-29T05:01:21.119Z,36.53
2022-11-29T05:02:58.882Z,37.43
2022-11-29T05:04:52.719Z,38.63
2022-11-29T05:06:35.320Z,40.60
2022-11-29T05:08:38.396Z,46.10
2022-11-29T05:10:31.028Z,39.90
2022-11-29T05:12:27.706Z,45.43
2022-11-29T05:14:17.668Z,36.87
2022-11-29T05:16:26.805Z,34.73
2022-11-29T05:18:23.316Z,34.40
2022-11-29T05:20:19.304Z,39.37
2022-11-29T05:22:15.795Z,42.73
2022-11-29T05:24:27.277Z,46.73
2022-11-29T05:26:43.607Z,39.93
2022-11-29T05:28:43.783Z,41.87
2022-11-29T05:30:21.731Z,46.10
2022-11-29T05:32:01.869Z,45.50
2022-11-29T05:34:05.513Z,50.93
2022-11-29T05:36:02.776Z,42.67
2022-11-29T05:37:43.459Z,50.10
2022-11-29T05:39:39.749Z,54.87
2022-11-29T05:41:34.013Z,57.97
2022-11-29T05:43:44.514Z,52.90
2022-11-29T05:45:43.481Z,54.70
2022-11-29T05:47:28.225Z,44.93
2022-11-29T05:49:33.464Z,49.60
2022-11-29T05:51:31.363Z,55.90
2022-11-29T05:53:32.434Z,57.97
2022-11-29T05:55:36.521Z,52.43
2022-11-29T05:57:13.757Z,46.43
2022-11-29T05:58:58.952Z,55.30
2022-11-29T06:00:59.524Z,52.40
2022-11-29T06:02:57.293Z,55.40
2022-11-29T06:04:47.929Z,59.47
2022-11-29T06:06:45.546Z,54.57
2022-11-29T06:08:44.412Z,56.77
2022-11-29T06:10:19.641Z,49.10
2022-11-29T06:12:02.392Z,54.40
2022-11-29T06:14:14.613Z,61.00
2022-11-29T06:16:14.062Z,52.90
2022-11-29T06:17:57.602Z,52.10
2022-11-29T06:19:37.521Z,58.53
2022-11-29T06:21:16.286Z,55.47
2022-11-29T06:23:07.099Z,52.50
2022-11-29T06:24:56.597Z,55.53
2022-11-29T06:26:52.470Z,54.10
2022-11-29T06:28:40.627Z,55.77
2022-11-29T06:30:15.102Z,54.40
2022-11-29T06:31:52.266Z,57.43
2022-11-29T06:33:32.093Z,49.00
2022-11-29T06:35:35.701Z,53.43
2022-11-29T06:37:31.303Z,57.53
2022-11-29T06:39:03.719Z,59.23
2022-11-29T06:40:35.687Z,57.60
2022-11-29T06:42:07.410Z,54.57
2022-11-29T06:43:39.273Z,58.73
2022-11-29T06:45:13.714Z,53.43
2022-11-29T06:47:01.813Z,52.53
2022-11-29T06:48:49.051Z,54.73
2022-11-29T06:50:38.653Z,51.40
2022-11-29T06:52:21.752Z,56.03
2022-11-29T06:54:18.285Z,57.00
2022-11-29T06:56:18.343Z,54.60
2022-11-29T06:57:53.946Z,49.90
2022-11-29T06:59:44.088Z,59.50
2022-11-29T07:01:39.713Z,53.60
2022-11-29T07:03:54.912Z,49.50
2022-11-29T07:05:28.746Z,58.67
2022-11-29T07:07:00.687Z,60.90
2022-11-29T07:08:32.770Z,55.50
2022-11-29T07:10:10.606Z,54.93
2022-11-29T07:11:46.695Z,59.37
2022-11-29T07:13:18.795Z,58.80
2022-11-29T07:14:50.758Z,51.90
2022-11-29T07:16:22.558Z,54.47
2022-11-29T07:18:31.739Z,58.10
2022-11-29T07:20:23.602Z,54.90
2022-11-29T07:22:41.322Z,57.73
2022-11-29T07:24:56.843Z,51.77
2022-11-29T07:26:45.519Z,54.97
2022-11-29T07:28:58.183Z,49.07
2022-11-29T07:30:42.127Z,58.77
2022-11-29T07:32:25.515Z,52.90
2022-11-29T07:34:49.711Z,60.70
2022-11-29T07:36:50.099Z,56.00
2022-11-29T07:38:46.052Z,57.80
2022-11-29T07:40:48.206Z,59.23
2022-11-29T07:42:33.351Z,46.60
2022-11-29T07:44:11.871Z,55.43
2022-11-29T07:45:43.612Z,63.27
2022-11-29T07:47:15.252Z,52.73
2022-11-29T07:48:46.898Z,63.77
2022-11-29T07:50:19.949Z,70.07
2022-11-29T07:51:54.228Z,61.67
2022-11-29T07:53:26.016Z,59.10
2022-11-29T07:54:57.782Z,57.70
2022-11-29T07:56:29.786Z,60.50
2022-11-29T07:58:01.380Z,60.33
2022-11-29T07:59:33.079Z,50.27
2022-11-29T08:01:04.881Z,56.50
2022-11-29T08:02:37.014Z,58.23
2022-11-29T08:04:09.268Z,58.03
2022-11-29T08:05:45.062Z,58.73
2022-11-29T08:07:16.771Z,54.53
2022-11-29T08:08:48.405Z,52.40
2022-11-29T08:10:20.095Z,53.03
2022-11-29T08:11:52.103Z,55.47
2022-11-29T08:13:23.757Z,48.93
2022-11-29T08:14:55.495Z,52.33
2022-11-29T08:16:27.582Z,59.60
2022-11-29T08:17:59.257Z,51.13
2022-11-29T08:19:30.906Z,61.40
2022-11-29T08:21:08.901Z,51.77
2022-11-29T08:22:41.257Z,61.07
2022-11-29T08:24:12.957Z,57.47
2022-11-29T08:25:45.753Z,54.73
2022-11-29T08:27:17.366Z,55.07
2022-11-29T08:28:52.451Z,49.30
2022-11-29T08:30:24.380Z,56.37
2022-11-29T08:31:56.249Z,52.43
2022-11-29T08:33:28.627Z,46.03
2022-11-29T08:35:00.633Z,48.20
2022-11-29T08:36:32.635Z,51.60
2022-11-29T08:38:04.835Z,48.63
2022-11-29T08:39:36.462Z,47.47
2022-11-29T08:41:10.435Z,55.57
2022-11-29T08:42:42.287Z,54.90
2022-11-29T08:44:13.926Z,48.43
2022-11-29T08:45:45.643Z,51.00
2022-11-29T08:47:35.996Z,53.53
2022-11-29T08:49:07.821Z,50.27
2022-11-29T08:50:39.434Z,52.13
2022-11-29T08:52:31.388Z,52.43
2022-11-29T08:54:10.118Z,60.07
2022-11-29T08:55:42.785Z,54.30
2022-11-29T08:57:39.239Z,48.10
2022-11-29T08:59:06.549Z,54.77
2022-11-29T09:00:39.426Z,54.50
2022-11-29T09:02:11.309Z,62.00
2022-11-29T09:03:59.374Z,51.13
2022-11-29T09:05:30.973Z,58.27
2022-11-29T09:07:02.625Z,51.93
2022-11-29T09:08:34.271Z,55.90
2022-11-29T09:10:08.236Z,54.53
2022-11-29T09:11:39.903Z,55.50
2022-11-29T09:13:12.174Z,50.80
2022-11-29T09:14:44.150Z,54.63
2022-11-29T09:16:18.341Z,49.70
2022-11-29T09:17:50.011Z,52.20
2022-11-29T09:19:21.967Z,52.03
2022-11-29T09:20:53.577Z,47.03
2022-11-29T09:22:25.240Z,46.70
2022-11-29T09:23:59.634Z,50.23
2022-11-29T09:25:31.349Z,46.60
2022-11-29T09:27:03.031Z,44.67
2022-11-29T09:28:35.342Z,50.33
2022-11-29T09:30:08.131Z,50.80
2022-11-29T09:31:39.871Z,46.73
2022-11-29T09:33:11.518Z,48.97
2022-11-29T09:34:43.418Z,53.10
2022-11-29T09:36:16.269Z,46.77
2022-11-29T09:37:47.873Z,59.77
2022-11-29T09:39:19.487Z,53.83
2022-11-29T09:40:53.419Z,49.03
2022-11-29T09:42:50.433Z,49.93
2022-11-29T09:44:59.804Z,53.77
2022-11-29T09:47:03.457Z,48.03
2022-11-29T09:49:10.898Z,46.27
2022-11-29T09:51:06.318Z,49.77
2022-11-29T09:52:57.135Z,54.07
2022-11-29T09:54:31.844Z,49.50
2022-11-29T09:56:23.319Z,47.73
2022-11-29T09:57:59.248Z,46.87
2022-11-29T09:59:54.112Z,50.80
2022-11-29T10:01:34.268Z,53.40
2022-11-29T10:03:19.882Z,48.30
2022-11-29T10:05:00.463Z,51.53
2022-11-29T10:06:48.335Z,60.70
2022-11-29T10:08:35.320Z,49.43
2022-11-29T10:10:18.493Z,54.33
2022-11-29T10:12:31.566Z,50.70
2022-11-29T10:14:18.005Z,57.40
2022-11-29T10:15:56.487Z,58.93
2022-11-29T10:17:52.124Z,47.60
2022-11-29T10:19:36.283Z,54.17
2022-11-29T10:21:15.665Z,51.67
2022-11-29T10:22:54.361Z,53.13
2022-11-29T10:24:28.395Z,52.63
2022-11-29T10:26:00.676Z,55.00
2022-11-29T10:27:32.331Z,59.67
2022-11-29T10:29:04.368Z,57.30
2022-11-29T10:30:36.387Z,54.97
2022-11-29T10:32:15.979Z,58.77
2022-11-29T10:33:48.668Z,57.73
2022-11-29T10:35:20.948Z,57.10
2022-11-29T10:36:55.433Z,61.63
2022-11-29T10:38:31.420Z,64.33
2022-11-29T10:40:09.644Z,57.40
2022-11-29T10:41:41.460Z,59.63
2022-11-29T10:43:13.872Z,58.50
2022-11-29T10:44:46.267Z,59.47
2022-11-29T10:46:32.428Z,61.07
2022-11-29T10:48:14.616Z,59.97
2022-11-29T10:49:46.650Z,59.03
2022-11-29T10:51:19.064Z,56.43
2022-11-29T10:52:53.623Z,57.17
2022-11-29T10:54:38.123Z,54.00
2022-11-29T10:56:29.283Z,55.43
2022-11-29T10:58:14.920Z,65.27
2022-11-29T11:00:06.775Z,59.43
2022-11-29T11:01:43.192Z,58.60
2022-11-29T11:03:33.606Z,59.00
2022-11-29T11:05:18.375Z,64.43
2022-11-29T11:06:55.637Z,61.80
2022-11-29T11:08:28.305Z,60.97
2022-11-29T11:10:00.540Z,55.07
2022-11-29T11:11:33.473Z,56.23
2022-11-29T11:13:18.520Z,51.60
2022-11-29T11:14:51.642Z,64.40
2022-11-29T11:16:26.581Z,52.83
2022-11-29T11:18:05.125Z,52.83
2022-11-29T11:19:37.054Z,55.97
2022-11-29T11:21:12.146Z,53.13
2022-11-29T11:22:44.129Z,52.60
2022-11-29T11:24:25.411Z,59.47
2022-11-29T11:26:06.026Z,57.40
2022-11-29T11:27:41.948Z,45.43
2022-11-29T11:29:26.322Z,47.77
2022-11-29T11:31:08.189Z,46.97
2022-11-29T11:32:39.999Z,54.40
2022-11-29T11:34:29.699Z,46.50
2022-11-29T11:36:12.899Z,52.30
2022-11-29T11:37:56.483Z,47.40
2022-11-29T11:39:29.199Z,45.57
2022-11-29T11:41:06.400Z,47.43
2022-11-29T11:42:40.905Z,45.70
2022-11-29T11:44:51.232Z,50.43
2022-11-29T11:46:28.565Z,48.53
2022-11-29T11:48:04.999Z,46.90
2022-11-29T11:50:07.007Z,49.27
2022-11-29T11:51:47.287Z,52.50
2022-11-29T11:53:36.392Z,52.37
2022-11-29T11:55:26.605Z,47.73
2022-11-29T11:57:06.036Z,50.50
2022-11-29T11:58:44.443Z,50.77
2022-11-29T12:02:40.923Z,45.97
2022-11-29T12:04:21.946Z,56.87
2022-11-29T12:06:23.572Z,56.27
2022-11-29T12:08:10.025Z,51.10
2022-11-29T12:09:47.639Z,53.63
2022-11-29T12:11:20.994Z,51.03
2022-11-29T12:12:55.484Z,49.77
2022-11-29T12:14:30.215Z,51.10
2022-11-29T12:16:10.595Z,50.70
2022-11-29T12:18:12.429Z,49.13
2022-11-29T12:20:14.315Z,49.73
2022-11-29T12:21:53.445Z,54.37
2022-11-29T12:23:37.451Z,51.27
2022-11-29T12:25:17.191Z,51.27
2022-11-29T12:27:03.689Z,48.67
2022-11-29T12:28:39.708Z,48.47
2022-11-29T12:30:15.201Z,53.90
2022-11-29T12:32:18.874Z,45.67
2022-11-29T12:33:50.813Z,54.77
2022-11-29T12:36:07.931Z,61.27
2022-11-29T12:37:48.937Z,52.40
2022-11-29T12:39:35.594Z,49.77
2022-11-29T12:41:42.523Z,57.37
2022-11-29T12:43:38.766Z,54.23
2022-11-29T12:45:32.212Z,53.70
2022-11-29T12:47:36.578Z,56.97
2022-11-29T12:49:34.113Z,49.83
2022-11-29T12:51:26.744Z,54.70
2022-11-29T12:53:05.123Z,58.23
2022-11-29T12:55:03.760Z,51.57
2022-11-29T12:57:30.634Z,63.03
2022-11-29T12:59:31.229Z,58.90
2022-11-29T13:01:24.134Z,57.67
2022-11-29T13:03:48.262Z,61.90
2022-11-29T13:06:03.138Z,49.97
2022-11-29T13:08:06.879Z,61.50
2022-11-29T13:09:44.818Z,54.83
2022-11-29T13:11:27.597Z,55.60
2022-11-29T13:13:19.017Z,55.90
2022-11-29T13:15:14.809Z,47.77
2022-11-29T13:17:05.134Z,50.93
2022-11-29T13:18:53.322Z,47.57
2022-11-29T13:20:29.890Z,48.40
2022-11-29T13:22:07.691Z,47.20
2022-11-29T13:24:08.432Z,41.80
2022-11-29T13:25:44.051Z,48.47
2022-11-29T13:27:23.653Z,53.07
2022-11-29T13:28:56.066Z,49.23
2022-11-29T13:30:30.775Z,50.83
2022-11-29T13:32:14.308Z,44.70
2022-11-29T13:34:08.252Z,41.67
2022-11-29T13:36:05.980Z,39.60
2022-11-29T13:37:55.979Z,37.73
2022-11-29T13:39:59.251Z,46.33
2022-11-29T13:41:37.548Z,38.07
2022-11-29T13:43:36.379Z,41.87
2022-11-29T13:45:18.757Z,38.63
2022-11-29T13:47:08.839Z,38.30
2022-11-29T13:48:52.655Z,34.50
2022-11-29T13:50:43.166Z,39.70
2022-11-29T13:52:29.197Z,42.37
2022-11-29T13:54:25.821Z,43.37
2022-11-29T13:56:02.455Z,37.10
2022-11-29T13:58:18.745Z,42.17
2022-11-29T13:59:51.019Z,33.50
2022-11-29T14:01:26.563Z,35.10
2022-11-29T14:03:18.473Z,34.97
2022-11-29T14:04:51.696Z,38.83
2022-11-29T14:06:35.601Z,32.27
2022-11-29T14:08:37.951Z,36.27
2022-11-29T14:10:29.053Z,31.13
2022-11-29T14:12:04.343Z,33.43
2022-11-29T14:13:46.764Z,36.80
2022-11-29T14:15:24.283Z,27.67
2022-11-29T14:17:00.565Z,30.93
2022-11-29T14:18:49.451Z,28.77
2022-11-29T14:20:24.781Z,32.63
2022-11-29T14:22:01.660Z,27.83
2022-11-29T14:23:40.316Z,29.83
2022-11-29T14:25:50.433Z,28.10
2022-11-29T14:27:20.251Z,29.30
2022-11-29T14:28:52.091Z,37.33
2022-11-29T14:30:33.072Z,25.87
2022-11-29T14:32:04.794Z,28.57
2022-11-29T14:33:48.378Z,31.97
2022-11-29T14:35:31.686Z,25.27
2022-11-29T14:37:15.770Z,25.80
2022-11-29T14:39:27.875Z,31.47
2022-11-29T14:41:05.645Z,28.20
2022-11-29T14:42:49.992Z,33.43
2022-11-29T14:44:32.124Z,30.43
2022-11-29T14:46:29.513Z,32.20
2022-11-29T14:48:02.657Z,29.73
2022-11-29T14:49:44.150Z,32.97
2022-11-29T14:51:18.677Z,33.83
2022-11-29T14:52:55.069Z,26.03
2022-11-29T14:54:29.631Z,29.57
2022-11-29T14:56:44.440Z,32.27
2022-11-29T14:58:20.460Z,31.27
2022-11-29T14:59:54.072Z,33.03
2022-11-29T15:01:26.017Z,29.13
2022-11-29T15:03:05.428Z,32.53
2022-11-29T15:04:39.314Z,31.37
2022-11-29T15:06:26.688Z,27.20
2022-11-29T15:08:10.809Z,33.70
2022-11-29T15:09:44.029Z,29.37
2022-11-29T15:11:35.055Z,33.60
2022-11-29T15:13:12.721Z,38.67
2022-11-29T15:14:47.415Z,30.10
2022-11-29T15:16:50.871Z,29.57
2022-11-29T15:19:12.117Z,29.60
2022-11-29T15:21:23.215Z,30.13
2022-11-29T15:22:59.671Z,29.57
2022-11-29T15:24:31.404Z,31.97
2022-11-29T15:26:03.219Z,30.67
2022-11-29T15:27:39.981Z,30.07
2022-11-29T15:29:21.039Z,35.87
2022-11-29T15:31:08.585Z,27.17
2022-11-29T15:32:43.553Z,26.67
2022-11-29T15:34:47.567Z,28.57
2022-11-29T15:36:22.737Z,30.77
2022-11-29T15:37:56.141Z,27.40
2022-11-29T15:39:30.930Z,27.87
2022-11-29T15:41:04.037Z,28.87
2022-11-29T15:42:43.714Z,33.03
2022-11-29T15:44:22.667Z,30.37
2022-11-29T15:45:59.037Z,21.77
2022-11-29T15:47:31.354Z,32.13
2022-11-29T15:49:27.057Z,33.20
2022-11-29T15:51:30.992Z,25.37
2022-11-29T15:53:10.460Z,26.37
2022-11-29T15:54:54.262Z,27.70
2022-11-29T15:56:41.088Z,24.57
2022-11-29T15:58:14.332Z,23.43
2022-11-29T15:59:51.495Z,29.20
2022-11-29T16:01:23.426Z,27.67
2022-11-29T16:03:00.545Z,30.80
2022-11-29T16:04:32.535Z,29.70
2022-11-29T16:06:28.646Z,27.53
2022-11-29T16:08:14.068Z,30.30
2022-11-29T16:09:54.806Z,28.80
2022-11-29T16:11:31.073Z,28.27
2022-11-29T16:13:07.448Z,24.57
2022-11-29T16:14:52.907Z,25.37
2022-11-29T16:16:26.970Z,25.40
2022-11-29T16:18:13.520Z,21.90
2022-11-29T16:19:46.831Z,24.63
2022-11-29T16:21:31.921Z,22.40
2022-11-29T16:23:15.649Z,25.13
2022-11-29T16:24:52.692Z,22.60
2022-11-29T16:26:34.199Z,22.67
2022-11-29T16:28:12.387Z,22.20
2022-11-29T16:29:45.994Z,24.20
2022-11-29T16:31:23.401Z,21.73
2022-11-29T16:33:00.356Z,23.53
2022-11-29T16:34:33.743Z,23.60
2022-11-29T16:36:11.496Z,22.00
2022-11-29T16:37:45.075Z,27.50
2022-11-29T16:39:23.500Z,24.97
2022-11-29T16:41:07.711Z,23.50
2022-11-29T16:42:40.604Z,26.33
2022-11-29T16:45:05.294Z,23.93
2022-11-29T16:46:39.670Z,22.40
2022-11-29T16:48:23.417Z,26.20
2022-11-29T16:50:19.050Z,23.03
2022-11-29T16:51:52.053Z,29.03
2022-11-29T16:53:39.676Z,24.13
2022-11-29T16:55:12.996Z,25.60
2022-11-29T16:56:44.676Z,27.43
2022-11-29T16:58:16.681Z,24.17
2022-11-29T16:59:49.381Z,25.00
2022-11-29T17:01:30.783Z,24.90
2022-11-29T17:03:02.880Z,25.80
2022-11-29T17:04:35.801Z,29.33
2022-11-29T17:06:10.865Z,25.93
2022-11-29T17:07:49.306Z,29.33
2022-11-29T17:09:34.440Z,28.13
2022-11-29T17:11:06.249Z,26.80
2022-11-29T17:12:47.769Z,27.47
2022-11-29T17:14:30.525Z,25.40
2022-11-29T17:16:02.197Z,26.63
2022-11-29T17:19:46.580Z,26.50
2022-11-29T17:21:31.776Z,28.63
2022-11-29T17:23:03.600Z,29.43
2022-11-29T17:24:36.728Z,33.80
2022-11-29T17:26:09.652Z,29.40
2022-11-29T17:27:41.400Z,29.03
2022-11-29T17:29:14.754Z,28.30
2022-11-29T17:30:46.406Z,28.27
2022-11-29T17:32:21.985Z,33.30
2022-11-29T17:34:00.747Z,31.77
2022-11-29T17:35:35.190Z,35.23
2022-11-29T17:37:07.064Z,31.67
2022-11-29T17:38:38.921Z,31.40
2022-11-29T17:40:18.229Z,33.23
2022-11-29T17:42:15.353Z,29.20
2022-11-29T17:43:51.552Z,39.13
2022-11-29T17:46:18.476Z,31.97
2022-11-29T17:50:18.082Z,32.97
2022-11-29T17:52:01.956Z,37.53
2022-11-29T17:53:39.083Z,33.23
2022-11-29T17:55:12.040Z,34.80
2022-11-29T17:56:52.224Z,34.37
2022-11-29T17:58:24.276Z,33.50
2022-11-29T17:59:56.023Z,37.47
2022-11-29T18:01:29.939Z,36.53
2022-11-29T18:03:02.617Z,32.90
2022-11-29T18:04:34.358Z,35.37
2022-11-29T18:06:07.709Z,35.33
2022-11-29T18:07:57.938Z,30.70
2022-11-29T18:09:30.085Z,33.23
2022-11-29T18:11:06.746Z,32.67
2022-11-29T18:12:38.667Z,35.63
2022-11-29T18:14:15.972Z,39.00
2022-11-29T18:18:33.397Z,35.33
2022-11-29T18:20:09.515Z,31.70
2022-11-29T18:21:43.664Z,37.53
2022-11-29T18:23:15.422Z,29.43
2022-11-29T18:24:47.058Z,31.40
2022-11-29T18:26:23.857Z,38.80
2022-11-29T18:27:55.530Z,32.03
2022-11-29T18:29:27.174Z,33.07
2022-11-29T18:30:58.966Z,35.70
2022-11-29T18:32:30.692Z,33.50
2022-11-29T18:34:06.775Z,38.00
2022-11-29T18:35:38.871Z,37.37
2022-11-29T18:37:20.053Z,31.00
2022-11-29T18:39:02.753Z,33.63
2022-11-29T18:40:34.433Z,37.67
2022-11-29T18:42:06.115Z,35.43
2022-11-29T18:43:40.063Z,35.93
2022-11-29T18:45:11.993Z,30.47
2022-11-29T18:46:44.795Z,41.80
2022-11-29T18:48:21.865Z,36.23
2022-11-29T18:49:55.217Z,34.37
2022-11-29T18:51:30.953Z,38.67
2022-11-29T18:53:02.805Z,39.07
2022-11-29T18:54:36.343Z,46.10
2022-11-29T18:56:19.990Z,32.80
2022-11-29T18:57:55.122Z,33.30
2022-11-29T18:59:27.530Z,37.47
2022-11-29T19:01:19.255Z,37.53
2022-11-29T19:02:50.941Z,36.50
2022-11-29T19:04:22.685Z,39.93
2022-11-29T19:05:54.479Z,37.27
2022-11-29T19:07:29.115Z,35.27
2022-11-29T19:09:01.419Z,40.40
2022-11-29T19:10:33.060Z,41.00
2022-11-29T19:12:04.905Z,38.83
2022-11-29T19:13:36.909Z,37.17
2022-11-29T19:15:09.222Z,42.40
2022-11-29T19:16:44.374Z,37.43
2022-11-29T19:18:15.979Z,37.80
2022-11-29T19:19:47.880Z,33.57
2022-11-29T19:21:22.020Z,36.73
2022-11-29T19:23:00.160Z,38.10
2022-11-29T19:24:32.214Z,37.07
2022-11-29T19:26:12.285Z,41.77
2022-11-29T19:27:46.969Z,34.30
2022-11-29T19:29:18.666Z,40.63
2022-11-29T19:30:56.376Z,35.67
2022-11-29T19:32:28.056Z,40.27
2022-11-29T19:33:59.689Z,42.87
2022-11-29T19:35:31.323Z,36.73
2022-11-29T19:37:03.079Z,40.27
2022-11-29T19:38:35.756Z,34.20
2022-11-29T19:40:08.112Z,33.73
2022-11-29T19:41:43.287Z,40.73
2022-11-29T19:43:14.911Z,40.03
2022-11-29T19:45:15.271Z,38.67
2022-11-29T19:46:41.563Z,37.60
2022-11-29T19:48:13.244Z,34.60
2022-11-29T19:49:46.853Z,35.97
2022-11-29T19:51:19.177Z,41.33
2022-11-29T19:52:50.817Z,43.27
2022-11-29T19:54:22.447Z,38.23
2022-11-29T19:55:54.166Z,41.73
2022-11-29T19:57:25.957Z,40.97
2022-11-29T19:58:59.534Z,40.37
2022-11-29T20:00:31.221Z,36.73
2022-11-29T20:02:02.989Z,37.13
2022-11-29T20:03:35.563Z,37.63
2022-11-29T20:05:07.762Z,40.63
2022-11-29T20:06:39.961Z,36.47
2022-11-29T20:08:11.639Z,38.47
2022-11-29T20:09:43.446Z,42.67
2022-11-29T20:11:18.987Z,37.97
2022-11-29T20:12:50.623Z,39.87
2022-11-29T20:14:22.239Z,35.20
2022-11-29T20:15:53.947Z,42.87
2022-11-29T20:17:25.735Z,36.03
2022-11-29T20:18:58.577Z,46.00
2022-11-29T20:20:30.769Z,44.43
2022-11-29T20:22:02.414Z,41.70
2022-11-29T20:23:34.668Z,38.23
2022-11-29T20:25:06.647Z,43.57
2022-11-29T20:26:41.044Z,38.30
2022-11-29T20:28:12.766Z,39.93
2022-11-29T20:29:44.803Z,41.37
2022-11-29T20:31:21.441Z,40.33
2022-11-29T20:32:53.517Z,44.20
2022-11-29T20:34:25.269Z,43.40
2022-11-29T20:36:36.807Z,42.20
2022-11-29T20:38:36.173Z,39.30
2022-11-29T20:40:16.649Z,43.17
2022-11-29T20:41:51.064Z,37.97
2022-11-29T20:43:38.600Z,45.53
2022-11-29T20:45:12.453Z,42.37
2022-11-29T20:46:44.604Z,43.60
2022-11-29T20:48:21.683Z,39.40
2022-11-29T20:49:54.289Z,44.10
2022-11-29T20:51:40.074Z,42.10
2022-11-29T20:53:26.414Z,44.77
2022-11-29T20:54:58.051Z,48.00
2022-11-29T20:56:29.672Z,39.67
2022-11-29T20:58:01.351Z,46.03
2022-11-29T20:59:33.151Z,45.73
2022-11-29T21:01:05.214Z,43.73
2022-11-29T21:02:37.249Z,45.20
2022-11-29T21:04:08.961Z,41.13
2022-11-29T21:05:41.279Z,46.90
2022-11-29T21:07:13.379Z,39.13
2022-11-29T21:08:45.211Z,41.23
2022-11-29T21:10:17.352Z,46.00
2022-11-29T21:11:49.386Z,41.23
2022-11-29T21:13:22.459Z,42.20
2022-11-29T21:14:54.449Z,43.90
2022-11-29T21:16:30.137Z,38.60
2022-11-29T21:18:02.386Z,48.90
2022-11-29T21:19:34.266Z,41.53
2022-11-29T21:21:14.658Z,42.60
2022-11-29T21:22:53.037Z,40.97
2022-11-29T21:24:53.426Z,47.37
2022-11-29T21:26:31.757Z,48.70
2022-11-29T21:28:08.201Z,46.50
2022-11-29T21:29:40.129Z,45.87
2022-11-29T21:31:12.979Z,48.57
2022-11-29T21:32:45.578Z,48.63
2022-11-29T21:34:17.555Z,46.70
2022-11-29T21:35:54.368Z,44.87
2022-11-29T21:37:28.969Z,47.93
2022-11-29T21:39:05.316Z,47.27
2022-11-29T21:40:37.134Z,43.03
2022-11-29T21:42:08.775Z,47.37
2022-11-29T21:44:05.496Z,44.30
2022-11-29T21:45:32.282Z,47.70
2022-11-29T21:47:04.437Z,45.93
2022-11-29T21:48:36.195Z,54.00
2022-11-29T21:50:08.491Z,49.90
2022-11-29T21:51:40.118Z,47.00
2022-11-29T21:53:11.744Z,51.50
2022-11-29T21:54:43.508Z,46.13